createdAt,value
2022-08-29T00:02:07.729Z,22.93
2022-08-29T00:04:36.719Z,22.99
2022-08-29T00:07:06.561Z,23.02
2022-08-29T00:09:34.825Z,23.04
2022-08-29T00:12:03.022Z,23.03
2022-08-29T00:14:31.419Z,22.97
2022-08-29T00:17:01.170Z,23.01
2022-08-29T00:19:29.404Z,22.98
2022-08-29T00:21:57.513Z,22.85
2022-08-29T00:24:27.469Z,22.85
2022-08-29T00:26:55.757Z,22.82
2022-08-29T00:29:23.862Z,22.78
2022-08-29T00:31:51.999Z,22.70
2022-08-29T00:34:20.432Z,22.72
2022-08-29T00:36:49.072Z,22.55
2022-08-29T00:39:17.559Z,22.57
2022-08-29T00:41:52.727Z,22.52
2022-08-29T00:44:20.959Z,22.48
2022-08-29T00:46:53.649Z,22.31
2022-08-29T00:49:31.270Z,22.30
2022-08-29T00:52:01.619Z,22.22
2022-08-29T00:54:31.096Z,22.11
2022-08-29T00:57:01.317Z,22.23
2022-08-29T00:59:34.024Z,22.33
2022-08-29T01:02:03.406Z,22.41
2022-08-29T01:04:31.977Z,22.45
2022-08-29T01:07:00.880Z,22.43
2022-08-29T01:09:30.667Z,22.36
2022-08-29T01:12:17.587Z,22.36
2022-08-29T01:14:50.162Z,22.25
2022-08-29T01:17:22.163Z,22.24
2022-08-29T01:19:58.339Z,22.19
2022-08-29T01:22:40.961Z,22.17
2022-08-29T01:25:12.968Z,22.05
2022-08-29T01:27:45.712Z,21.91
2022-08-29T01:30:15.513Z,21.86
2022-08-29T01:32:44.158Z,21.81
2022-08-29T01:35:12.505Z,21.94
2022-08-29T01:37:44.576Z,21.95
2022-08-29T01:40:14.822Z,21.92
2022-08-29T01:42:44.069Z,21.90
2022-08-29T01:45:12.704Z,21.85
2022-08-29T01:47:41.307Z,21.84
2022-08-29T01:50:12.821Z,21.82
2022-08-29T01:52:42.141Z,21.76
2022-08-29T01:55:10.612Z,21.80
2022-08-29T01:57:41.739Z,21.70
2022-08-29T02:00:11.854Z,21.68
2022-08-29T02:02:41.223Z,21.60
2022-08-29T02:05:10.137Z,21.57
2022-08-29T02:07:38.401Z,21.61
2022-08-29T02:10:07.965Z,21.59
2022-08-29T02:12:36.933Z,21.62
2022-08-29T02:15:08.325Z,21.59
2022-08-29T02:17:36.493Z,21.58
2022-08-29T02:20:08.156Z,21.59
2022-08-29T02:22:37.251Z,21.52
2022-08-29T02:25:28.270Z,21.39
2022-08-29T02:27:58.060Z,21.29
2022-08-29T02:30:27.647Z,21.26
2022-08-29T02:32:55.925Z,21.31
2022-08-29T02:35:24.535Z,21.33
2022-08-29T02:37:53.224Z,21.41
2022-08-29T02:40:24.659Z,21.37
2022-08-29T02:42:59.913Z,21.40
2022-08-29T02:45:29.877Z,21.39
2022-08-29T02:47:58.474Z,21.42
2022-08-29T02:50:27.017Z,21.42
2022-08-29T02:52:55.165Z,21.45
2022-08-29T02:55:25.197Z,21.32
2022-08-29T02:57:54.485Z,21.39
2022-08-29T03:00:25.571Z,21.47
2022-08-29T03:02:56.155Z,21.60
2022-08-29T03:05:27.529Z,21.58
2022-08-29T03:07:56.153Z,21.61
2022-08-29T03:10:24.981Z,21.64
2022-08-29T03:12:53.150Z,21.63
2022-08-29T03:15:22.398Z,21.65
2022-08-29T03:17:51.472Z,21.46
2022-08-29T03:20:23.064Z,21.35
2022-08-29T03:22:51.964Z,21.27
2022-08-29T03:25:20.978Z,21.42
2022-08-29T03:27:49.227Z,21.43
2022-08-29T03:30:18.813Z,21.20
2022-08-29T03:32:48.396Z,21.12
2022-08-29T03:35:18.153Z,21.19
2022-08-29T03:37:48.075Z,21.18
2022-08-29T03:40:19.183Z,21.21
2022-08-29T03:42:47.947Z,21.14
2022-08-29T03:45:18.642Z,21.07
2022-08-29T03:47:47.490Z,21.14
2022-08-29T03:50:17.835Z,21.15
2022-08-29T03:52:47.762Z,20.88
2022-08-29T03:55:16.690Z,20.85
2022-08-29T03:57:45.664Z,20.91
2022-08-29T04:00:17.254Z,20.90
2022-08-29T04:02:47.518Z,20.96
2022-08-29T04:05:18.208Z,20.91
2022-08-29T04:07:50.749Z,20.90
2022-08-29T04:10:22.459Z,20.82
2022-08-29T04:12:54.492Z,20.79
2022-08-29T04:15:24.091Z,20.74
2022-08-29T04:17:54.495Z,20.68
2022-08-29T04:20:25.443Z,20.49
2022-08-29T04:22:56.569Z,20.43
2022-08-29T04:25:26.514Z,20.40
2022-08-29T04:27:56.365Z,20.42
2022-08-29T04:30:28.148Z,20.55
2022-08-29T04:32:56.581Z,20.55
2022-08-29T04:35:24.678Z,20.49
2022-08-29T04:37:53.001Z,20.50
2022-08-29T04:40:24.116Z,20.44
2022-08-29T04:42:52.438Z,20.38
2022-08-29T04:45:23.166Z,20.49
2022-08-29T04:47:51.277Z,20.52
2022-08-29T04:50:22.050Z,20.55
2022-08-29T04:52:52.436Z,20.61
2022-08-29T04:55:25.642Z,20.64
2022-08-29T04:57:57.086Z,20.64
2022-08-29T05:00:28.693Z,20.61
2022-08-29T05:02:58.584Z,20.65
2022-08-29T05:05:27.939Z,20.69
2022-08-29T05:07:56.061Z,20.78
2022-08-29T05:10:26.378Z,20.85
2022-08-29T05:12:54.516Z,20.90
2022-08-29T05:15:22.624Z,20.92
2022-08-29T05:17:50.723Z,21.01
2022-08-29T05:20:19.079Z,21.05
2022-08-29T05:22:47.419Z,21.05
2022-08-29T05:25:18.226Z,20.99
2022-08-29T05:27:48.298Z,21.01
2022-08-29T05:30:34.789Z,21.11
2022-08-29T05:33:03.652Z,21.24
2022-08-29T05:35:31.807Z,21.34
2022-08-29T05:37:59.971Z,21.34
2022-08-29T05:40:28.665Z,21.46
2022-08-29T05:42:58.213Z,21.62
2022-08-29T05:45:26.330Z,21.82
2022-08-29T05:47:55.989Z,21.95
2022-08-29T05:50:24.671Z,21.97
2022-08-29T05:52:52.787Z,22.12
2022-08-29T05:55:21.271Z,22.15
2022-08-29T05:57:51.782Z,22.23
2022-08-29T06:00:22.038Z,22.20
2022-08-29T06:02:51.023Z,22.31
2022-08-29T06:05:19.456Z,22.38
2022-08-29T06:07:48.438Z,22.51
2022-08-29T06:10:16.559Z,22.52
2022-08-29T06:12:44.961Z,22.56
2022-08-29T06:15:13.181Z,22.61
2022-08-29T06:17:42.799Z,22.56
2022-08-29T06:20:12.094Z,22.56
2022-08-29T06:22:40.745Z,22.56
2022-08-29T06:25:28.304Z,22.67
2022-08-29T06:27:58.352Z,22.75
2022-08-29T06:30:26.628Z,22.81
2022-08-29T06:32:56.199Z,22.98
2022-08-29T06:35:24.381Z,23.09
2022-08-29T06:37:53.395Z,23.20
2022-08-29T06:40:21.627Z,23.27
2022-08-29T06:42:49.832Z,23.30
2022-08-29T06:45:18.333Z,23.23
2022-08-29T06:47:47.542Z,23.35
2022-08-29T06:50:17.728Z,23.39
2022-08-29T06:52:46.967Z,23.40
2022-08-29T06:55:15.810Z,23.38
2022-08-29T06:57:45.989Z,23.48
2022-08-29T07:00:22.339Z,23.40
2022-08-29T07:02:52.394Z,23.48
2022-08-29T07:05:23.255Z,23.44
2022-08-29T07:07:52.546Z,23.45
2022-08-29T07:10:22.838Z,23.48
2022-08-29T07:12:52.073Z,23.54
2022-08-29T07:15:21.326Z,23.63
2022-08-29T07:17:49.986Z,23.64
2022-08-29T07:20:18.802Z,23.71
2022-08-29T07:22:51.488Z,23.88
2022-08-29T07:25:21.779Z,24.02
2022-08-29T07:27:52.037Z,24.14
2022-08-29T07:30:22.142Z,24.23
2022-08-29T07:32:50.308Z,24.38
2022-08-29T07:35:29.570Z,24.43
2022-08-29T07:38:01.234Z,24.38
2022-08-29T07:40:30.070Z,24.42
2022-08-29T07:42:58.586Z,24.51
2022-08-29T07:45:26.827Z,24.51
2022-08-29T07:47:54.999Z,24.50
2022-08-29T07:50:23.339Z,24.54
2022-08-29T07:52:52.590Z,24.56
2022-08-29T07:55:23.103Z,24.59
2022-08-29T07:57:52.703Z,24.70
2022-08-29T08:00:22.012Z,24.79
2022-08-29T08:02:50.259Z,24.89
2022-08-29T08:05:18.827Z,24.98
2022-08-29T08:07:47.256Z,25.14
2022-08-29T08:10:17.204Z,25.13
2022-08-29T08:12:47.649Z,25.02
2022-08-29T08:15:16.825Z,24.93
2022-08-29T08:17:44.955Z,24.97
2022-08-29T08:20:14.063Z,25.12
2022-08-29T08:22:42.624Z,25.30
2022-08-29T08:25:11.154Z,25.37
2022-08-29T08:27:43.474Z,25.36
2022-08-29T08:30:14.691Z,25.44
2022-08-29T08:32:46.898Z,25.55
2022-08-29T08:35:16.783Z,25.57
2022-08-29T08:37:45.389Z,25.65
2022-08-29T08:40:23.206Z,25.73
2022-08-29T08:42:51.822Z,25.90
2022-08-29T08:45:26.808Z,25.82
2022-08-29T08:48:03.820Z,25.79
2022-08-29T08:50:41.886Z,25.89
2022-08-29T08:53:19.752Z,26.02
2022-08-29T08:55:51.525Z,26.11
2022-08-29T08:58:31.104Z,25.99
2022-08-29T09:01:03.629Z,26.05
2022-08-29T09:04:07.359Z,25.97
2022-08-29T09:06:52.020Z,25.74
2022-08-29T09:09:30.414Z,25.94
2022-08-29T09:12:10.237Z,26.15
2022-08-29T09:14:54.933Z,26.30
2022-08-29T09:17:30.767Z,26.45
2022-08-29T09:20:09.137Z,26.67
2022-08-29T09:22:40.685Z,26.64
2022-08-29T09:25:11.075Z,26.41
2022-08-29T09:27:41.360Z,26.36
2022-08-29T09:30:12.452Z,26.22
2022-08-29T09:32:58.207Z,26.06
2022-08-29T09:35:29.874Z,26.00
2022-08-29T09:38:01.554Z,25.81
2022-08-29T09:40:49.894Z,25.71
2022-08-29T09:43:25.439Z,25.76
2022-08-29T09:46:09.134Z,25.93
2022-08-29T09:48:40.986Z,26.05
2022-08-29T09:51:15.918Z,26.25
2022-08-29T09:53:44.814Z,26.27
2022-08-29T09:56:19.894Z,26.43
2022-08-29T09:59:00.023Z,26.45
2022-08-29T10:01:29.783Z,26.27
2022-08-29T10:04:01.518Z,26.30
2022-08-29T10:06:32.608Z,26.29
2022-08-29T10:09:05.629Z,26.26
2022-08-29T10:11:44.057Z,26.05
2022-08-29T10:14:18.018Z,26.39
2022-08-29T10:16:53.859Z,26.55
2022-08-29T10:19:33.177Z,26.67
2022-08-29T10:22:07.102Z,26.89
2022-08-29T10:24:55.095Z,26.96
2022-08-29T10:27:40.671Z,27.26
2022-08-29T10:30:12.122Z,27.43
2022-08-29T10:33:17.893Z,27.60
2022-08-29T10:35:55.743Z,27.64
2022-08-29T10:38:39.089Z,27.82
2022-08-29T10:41:17.209Z,27.86
2022-08-29T10:43:51.406Z,27.73
2022-08-29T10:46:42.123Z,27.71
2022-08-29T10:49:21.883Z,27.38
2022-08-29T10:52:01.099Z,27.60
2022-08-29T10:54:38.698Z,27.53
2022-08-29T10:57:09.407Z,27.51
2022-08-29T10:59:50.415Z,27.44
2022-08-29T11:02:37.234Z,27.16
2022-08-29T11:05:12.407Z,27.05
2022-08-29T11:07:48.105Z,27.17
2022-08-29T11:10:20.509Z,27.18
2022-08-29T11:12:55.246Z,27.27
2022-08-29T11:15:29.531Z,27.13
2022-08-29T11:18:10.216Z,27.09
2022-08-29T11:20:44.655Z,27.11
2022-08-29T11:23:23.882Z,27.11
2022-08-29T11:25:52.355Z,27.21
2022-08-29T11:28:38.583Z,27.32
2022-08-29T11:31:13.259Z,27.22
2022-08-29T11:33:47.852Z,27.20
2022-08-29T11:36:41.297Z,27.22
2022-08-29T11:39:57.541Z,27.20
2022-08-29T11:45:35.471Z,27.21
2022-08-29T11:48:20.818Z,27.25
2022-08-29T11:50:49.670Z,27.25
2022-08-29T11:53:33.788Z,27.31
2022-08-29T11:56:21.921Z,27.18
2022-08-29T11:58:53.827Z,27.18
2022-08-29T12:02:00.745Z,27.23
2022-08-29T12:04:52.293Z,27.51
2022-08-29T12:07:21.593Z,27.73
2022-08-29T12:09:53.096Z,27.99
2022-08-29T12:12:47.380Z,27.77
2022-08-29T12:15:59.944Z,27.74
2022-08-29T12:18:40.321Z,27.78
2022-08-29T12:21:47.247Z,27.94
2022-08-29T12:24:31.464Z,28.30
2022-08-29T12:27:00.303Z,28.20
2022-08-29T12:29:33.345Z,28.17
2022-08-29T12:32:40.122Z,28.24
2022-08-29T12:35:32.948Z,28.11
2022-08-29T12:38:18.176Z,28.54
2022-08-29T12:41:05.890Z,28.90
2022-08-29T12:43:41.381Z,28.51
2022-08-29T12:46:18.455Z,28.70
2022-08-29T12:48:57.481Z,28.45
2022-08-29T12:51:35.985Z,28.23
2022-08-29T12:54:04.993Z,28.62
2022-08-29T12:56:33.836Z,28.65
2022-08-29T12:59:04.912Z,28.51
2022-08-29T13:01:37.913Z,28.13
2022-08-29T13:04:13.145Z,28.95
2022-08-29T13:06:54.995Z,29.17
2022-08-29T13:09:27.655Z,29.50
2022-08-29T13:12:11.928Z,29.47
2022-08-29T13:14:52.948Z,29.48
2022-08-29T13:17:22.803Z,29.02
2022-08-29T13:20:28.245Z,28.76
2022-08-29T13:23:09.523Z,28.30
2022-08-29T13:25:45.270Z,28.22
2022-08-29T13:28:21.020Z,28.03
2022-08-29T13:31:22.491Z,27.99
2022-08-29T13:34:17.804Z,28.47
2022-08-29T13:36:59.396Z,28.21
2022-08-29T13:39:41.219Z,28.02
2022-08-29T13:42:32.896Z,27.94
2022-08-29T13:45:08.461Z,27.81
2022-08-29T13:47:46.621Z,28.02
2022-08-29T13:50:17.115Z,28.30
2022-08-29T13:52:45.476Z,28.33
2022-08-29T13:55:15.038Z,28.12
2022-08-29T13:57:47.780Z,28.04
2022-08-29T14:00:17.428Z,28.02
2022-08-29T14:02:53.673Z,27.98
2022-08-29T14:05:22.081Z,27.95
2022-08-29T14:07:50.607Z,28.03
2022-08-29T14:10:20.679Z,28.18
2022-08-29T14:12:48.814Z,28.16
2022-08-29T14:15:18.634Z,28.14
2022-08-29T14:17:48.862Z,28.12
2022-08-29T14:20:21.795Z,28.45
2022-08-29T14:22:50.496Z,28.77
2022-08-29T14:25:21.057Z,28.60
2022-08-29T14:27:49.778Z,29.31
2022-08-29T14:30:21.322Z,29.74
2022-08-29T14:32:49.800Z,29.83
2022-08-29T14:35:26.842Z,30.02
2022-08-29T14:38:01.320Z,30.25
2022-08-29T14:40:32.348Z,30.71
2022-08-29T14:43:02.201Z,31.13
2022-08-29T14:45:31.618Z,31.56
2022-08-29T14:47:59.815Z,31.47
2022-08-29T14:50:28.845Z,31.55
2022-08-29T14:52:57.057Z,31.47
2022-08-29T14:55:25.397Z,31.53
2022-08-29T14:57:55.000Z,31.55
2022-08-29T15:00:26.261Z,31.57
2022-08-29T15:02:54.954Z,31.62
2022-08-29T15:05:23.661Z,32.11
2022-08-29T15:07:52.458Z,32.34
2022-08-29T15:10:24.357Z,32.18
2022-08-29T15:12:54.421Z,31.24
2022-08-29T15:15:29.197Z,31.80
2022-08-29T15:17:57.910Z,31.45
2022-08-29T15:20:36.809Z,31.41
2022-08-29T15:23:06.525Z,31.28
2022-08-29T15:25:35.271Z,31.43
2022-08-29T15:28:05.745Z,31.69
2022-08-29T15:30:34.453Z,31.39
2022-08-29T15:33:02.744Z,31.65
2022-08-29T15:35:31.206Z,31.68
2022-08-29T15:37:59.388Z,31.49
2022-08-29T15:40:27.956Z,31.82
2022-08-29T15:42:56.264Z,31.45
2022-08-29T15:45:25.803Z,30.78
2022-08-29T15:47:54.471Z,29.47
2022-08-29T15:50:24.367Z,29.05
2022-08-29T15:52:53.053Z,28.96
2022-08-29T15:55:21.606Z,28.92
2022-08-29T15:57:52.511Z,28.71
2022-08-29T16:00:29.610Z,28.76
2022-08-29T16:03:06.663Z,28.64
2022-08-29T16:05:38.248Z,28.08
2022-08-29T16:08:07.133Z,28.14
2022-08-29T16:10:39.183Z,28.21
2022-08-29T16:13:07.696Z,27.95
2022-08-29T16:15:36.482Z,27.73
2022-08-29T16:18:06.754Z,27.34
2022-08-29T16:20:36.342Z,26.91
2022-08-29T16:23:06.332Z,26.91
2022-08-29T16:25:35.064Z,26.64
2022-08-29T16:28:06.079Z,26.49
2022-08-29T16:30:34.952Z,26.32
2022-08-29T16:33:08.011Z,26.50
2022-08-29T16:35:36.266Z,26.67
2022-08-29T16:38:04.648Z,26.78
2022-08-29T16:40:35.433Z,26.77
2022-08-29T16:43:05.498Z,26.88
2022-08-29T16:45:34.418Z,26.80
2022-08-29T16:48:03.118Z,26.75
2022-08-29T16:50:34.640Z,26.62
2022-08-29T16:53:02.939Z,26.65
2022-08-29T16:55:31.758Z,26.70
2022-08-29T16:58:17.806Z,26.71
2022-08-29T17:00:46.392Z,26.59
2022-08-29T17:03:19.382Z,26.72
2022-08-29T17:05:50.113Z,26.48
2022-08-29T17:08:17.405Z,26.42
2022-08-29T17:10:45.071Z,26.39
2022-08-29T17:13:12.557Z,26.46
2022-08-29T17:15:39.862Z,26.54
2022-08-29T17:18:08.025Z,26.53
2022-08-29T17:20:37.679Z,26.55
2022-08-29T17:23:10.286Z,26.48
2022-08-29T17:25:39.298Z,26.48
2022-08-29T17:28:27.716Z,26.43
2022-08-29T17:30:57.497Z,26.22
2022-08-29T17:33:26.048Z,26.21
2022-08-29T17:35:54.581Z,26.17
2022-08-29T17:38:24.585Z,26.21
2022-08-29T17:40:57.124Z,26.05
2022-08-29T17:43:27.624Z,26.04
2022-08-29T17:45:57.571Z,25.89
2022-08-29T17:48:26.226Z,25.77
2022-08-29T17:50:54.414Z,25.48
2022-08-29T17:53:25.096Z,25.42
2022-08-29T17:55:53.909Z,25.34
2022-08-29T17:58:23.375Z,25.27
2022-08-29T18:00:52.388Z,25.00
2022-08-29T18:03:20.751Z,24.89
2022-08-29T18:05:49.033Z,24.87
2022-08-29T18:08:17.546Z,24.88
2022-08-29T18:10:47.305Z,24.82
2022-08-29T18:13:19.717Z,24.79
2022-08-29T18:15:50.701Z,24.69
2022-08-29T18:18:21.424Z,24.69
2022-08-29T18:20:49.617Z,24.69
2022-08-29T18:23:17.858Z,24.71
2022-08-29T18:25:47.878Z,24.74
2022-08-29T18:28:16.221Z,24.77
2022-08-29T18:30:44.557Z,24.84
2022-08-29T18:33:13.090Z,24.81
2022-08-29T18:35:41.278Z,24.75
2022-08-29T18:38:10.278Z,24.72
2022-08-29T18:40:39.917Z,24.67
2022-08-29T18:43:09.799Z,24.64
2022-08-29T18:45:38.390Z,24.59
2022-08-29T18:48:06.944Z,24.61
2022-08-29T18:50:35.236Z,24.60
2022-08-29T18:53:08.855Z,24.53
2022-08-29T18:55:36.939Z,24.62
2022-08-29T18:58:06.183Z,24.63
2022-08-29T19:00:36.330Z,24.65
2022-08-29T19:03:05.472Z,24.59
2022-08-29T19:05:35.495Z,24.46
2022-08-29T19:08:04.046Z,24.40
2022-08-29T19:10:33.351Z,24.36
2022-08-29T19:13:01.575Z,24.32
2022-08-29T19:15:30.748Z,24.33
2022-08-29T19:18:00.642Z,24.38
2022-08-29T19:20:46.758Z,24.43
2022-08-29T19:23:16.162Z,24.44
2022-08-29T19:25:44.934Z,24.43
2022-08-29T19:28:13.344Z,24.36
2022-08-29T19:30:42.050Z,24.32
2022-08-29T19:33:12.640Z,24.35
2022-08-29T19:35:40.958Z,24.32
2022-08-29T19:38:10.068Z,24.30
2022-08-29T19:40:40.171Z,24.28
2022-08-29T19:43:13.606Z,24.29
2022-08-29T19:45:44.559Z,24.23
2022-08-29T19:48:15.192Z,24.18
2022-08-29T19:50:47.336Z,24.17
2022-08-29T19:53:24.661Z,24.14
2022-08-29T19:55:56.275Z,24.09
2022-08-29T19:58:31.298Z,24.07
2022-08-29T20:01:00.333Z,24.10
2022-08-29T20:03:30.679Z,24.06
2022-08-29T20:05:59.644Z,24.02
2022-08-29T20:08:29.167Z,23.99
2022-08-29T20:10:59.749Z,23.95
2022-08-29T20:13:31.575Z,23.89
2022-08-29T20:16:02.445Z,23.88
2022-08-29T20:18:31.937Z,23.89
2022-08-29T20:21:00.244Z,23.90
2022-08-29T20:23:30.234Z,23.93
2022-08-29T20:25:59.959Z,23.89
2022-08-29T20:28:28.666Z,23.88
2022-08-29T20:30:57.349Z,23.86
2022-08-29T20:33:25.960Z,23.78
2022-08-29T20:36:13.138Z,23.76
2022-08-29T20:38:41.428Z,23.65
2022-08-29T20:41:09.602Z,23.64
2022-08-29T20:43:39.258Z,23.58
2022-08-29T20:46:08.594Z,23.54
2022-08-29T20:48:37.924Z,23.50
2022-08-29T20:51:10.897Z,23.47
2022-08-29T20:53:40.583Z,23.41
2022-08-29T20:56:09.562Z,23.36
2022-08-29T20:58:37.720Z,23.33
2022-08-29T21:01:06.311Z,23.36
2022-08-29T21:03:52.730Z,23.30
2022-08-29T21:06:22.663Z,23.29
2022-08-29T21:08:51.260Z,23.28
2022-08-29T21:11:20.806Z,23.27
2022-08-29T21:13:53.168Z,23.25
2022-08-29T21:16:22.039Z,23.23
2022-08-29T21:18:52.369Z,23.24
2022-08-29T21:21:24.834Z,23.28
2022-08-29T21:23:53.577Z,23.30
2022-08-29T21:26:21.714Z,23.29
2022-08-29T21:28:49.958Z,23.22
2022-08-29T21:31:19.484Z,23.21
2022-08-29T21:33:47.805Z,23.20
2022-08-29T21:36:18.828Z,23.12
2022-08-29T21:38:52.346Z,23.05
2022-08-29T21:41:20.540Z,23.01
2022-08-29T21:43:48.896Z,23.02
2022-08-29T21:46:18.764Z,23.02
2022-08-29T21:48:47.313Z,22.98
2022-08-29T21:51:18.682Z,22.97
2022-08-29T21:53:49.608Z,22.97
2022-08-29T21:56:18.351Z,22.96
2022-08-29T21:58:49.644Z,22.88
2022-08-29T22:01:18.118Z,22.86
2022-08-29T22:03:50.083Z,22.84
2022-08-29T22:06:19.143Z,22.81
2022-08-29T22:08:49.136Z,22.77
2022-08-29T22:11:22.446Z,22.76
2022-08-29T22:13:52.455Z,22.74
2022-08-29T22:16:28.744Z,22.69
2022-08-29T22:19:02.768Z,22.60
2022-08-29T22:21:33.117Z,22.60
2022-08-29T22:24:02.993Z,22.57
2022-08-29T22:26:31.217Z,22.57
2022-08-29T22:28:59.360Z,22.65
2022-08-29T22:31:28.035Z,22.68
2022-08-29T22:33:56.194Z,22.66
2022-08-29T22:36:24.750Z,22.69
2022-08-29T22:38:55.392Z,22.67
2022-08-29T22:41:26.305Z,22.60
2022-08-29T22:44:31.683Z,22.51
2022-08-29T22:46:44.800Z,22.47
2022-08-29T22:49:13.500Z,22.49
2022-08-29T22:51:41.682Z,22.51
2022-08-29T22:54:26.938Z,22.56
2022-08-29T22:56:56.542Z,22.57
2022-08-29T22:59:24.712Z,22.54
2022-08-29T23:01:52.961Z,22.47
2022-08-29T23:04:24.172Z,22.43
2022-08-29T23:06:52.258Z,22.39
2022-08-29T23:09:20.448Z,22.38
2022-08-29T23:11:48.874Z,22.45
2022-08-29T23:14:20.609Z,22.47
2022-08-29T23:16:49.560Z,22.46
2022-08-29T23:19:18.110Z,22.47
2022-08-29T23:21:46.293Z,22.48
2022-08-29T23:24:14.645Z,22.50
2022-08-29T23:26:43.337Z,22.55
2022-08-29T23:29:11.626Z,22.58
2022-08-29T23:31:41.468Z,22.56
2022-08-29T23:34:09.712Z,22.53
2022-08-29T23:36:37.874Z,22.48
2022-08-29T23:39:06.553Z,22.44
2022-08-29T23:41:35.398Z,22.38
2022-08-29T23:44:04.046Z,22.35
2022-08-29T23:46:32.243Z,22.30
2022-08-29T23:49:01.807Z,22.29
2022-08-29T23:51:30.002Z,22.28
2022-08-29T23:53:58.372Z,22.29
2022-08-29T23:56:27.004Z,22.30
2022-08-29T23:58:56.710Z,22.37
